Time;durP1;ratioP1;P1;durP2;ratioP2;P2;SDS_P1;SDS_P2;PMS_P1;PMS_P2;Temp;Humidity;BMP_temperature;BMP_pressure;BME280_temperature;BME280_humidity;BME280_pressure;Samples;Min_cycle;Max_cycle;Signal;HPM_P1;HPM_P2
2022/08/04 00:01:50;;;;;;;3.22;1.23;;;20.20;99.30;;;;;;5039063;28;20035;-77
2022/08/04 00:04:55;;;;;;;6.65;1.63;;;20.30;99.20;;;;;;5039806;28;20082;-76
2022/08/04 00:07:26;;;;;;;9.77;2.25;;;20.30;99.50;;;;;;5040175;28;20426;-72
2022/08/04 00:10:04;;;;;;;6.85;2.25;;;20.30;99.20;;;;;;5018377;28;20022;-76
2022/08/04 00:12:35;;;;;;;9.57;2.80;;;20.40;99.10;;;;;;5032395;28;20781;-72
2022/08/04 00:15:05;;;;;;;12.90;2.92;;;20.40;99.00;;;;;;5039168;28;20496;-71
2022/08/04 00:17:40;;;;;;;8.30;2.50;;;20.40;98.90;;;;;;5040126;28;20420;-78
2022/08/04 00:20:10;;;;;;;15.18;4.03;;;20.50;98.90;;;;;;5039772;28;20082;-74
2022/08/04 00:22:42;;;;;;;6.55;1.55;;;20.50;98.90;;;;;;5039126;28;20024;-73
2022/08/04 00:25:10;;;;;;;6.43;1.35;;;20.50;98.90;;;;;;5039854;28;20028;-79
2022/08/04 00:27:37;;;;;;;3.47;1.98;;;20.60;98.90;;;;;;5040082;28;20067;-72
2022/08/04 00:30:07;;;;;;;6.28;1.48;;;20.60;98.80;;;;;;5039057;28;20718;-81
2022/08/04 00:32:34;;;;;;;6.18;1.60;;;20.60;98.80;;;;;;5039090;28;20021;-85
2022/08/04 00:35:02;;;;;;;4.60;1.60;;;20.70;98.70;;;;;;5035982;28;20443;-73
2022/08/04 00:37:30;;;;;;;6.70;1.92;;;20.70;98.60;;;;;;5037863;28;20045;-74
2022/08/04 00:39:58;;;;;;;10.00;2.28;;;20.70;98.50;;;;;;5055445;28;20438;-77
2022/08/04 00:43:02;;;;;;;4.28;1.60;;;20.80;98.50;;;;;;5038084;28;20738;-77
2022/08/04 00:46:02;;;;;;;10.05;2.08;;;20.80;98.60;;;;;;5037926;28;20470;-71
2022/08/04 00:48:38;;;;;;;5.95;1.80;;;20.70;98.50;;;;;;5039001;28;20128;-73
2022/08/04 00:51:24;;;;;;;5.63;1.95;;;20.70;98.50;;;;;;5042307;28;20053;-71
2022/08/04 00:54:03;;;;;;;8.40;2.20;;;20.70;98.60;;;;;;5037161;28;20025;-72
2022/08/04 00:57:10;;;;;;;6.72;2.17;;;20.70;98.60;;;;;;5039262;28;20049;-79
2022/08/04 01:00:02;;;;;;;8.90;2.53;;;20.70;98.50;;;;;;5039154;28;20036;-85
2022/08/04 01:02:51;;;;;;;9.85;2.90;;;20.70;98.60;;;;;;5043069;28;20024;-81
2022/08/04 01:05:34;;;;;;;5.00;1.30;;;20.80;98.70;;;;;;5040222;28;20049;-79
2022/08/04 01:08:17;;;;;;;7.03;1.70;;;20.70;98.70;;;;;;5037048;28;20029;-74
2022/08/04 01:11:02;;;;;;;3.53;1.50;;;20.70;98.60;;;;;;5039322;28;20024;-79
2022/08/04 01:13:37;;;;;;;3.10;1.42;;;20.70;98.70;;;;;;5037929;28;20032;-78
2022/08/04 01:16:09;;;;;;;5.15;1.40;;;20.70;98.80;;;;;;5036962;28;20802;-75
2022/08/04 01:19:02;;;;;;;8.60;2.15;;;20.70;98.60;;;;;;5038758;28;20421;-82
2022/08/04 01:21:29;;;;;;;;;;;20.70;98.60;;;;;;5038842;28;20029;-82
2022/08/04 01:24:18;;;;;;;6.55;1.80;;;20.80;98.70;;;;;;5035930;28;19959;-81
2022/08/04 01:27:03;;;;;;;2.92;1.60;;;20.70;98.70;;;;;;5045063;28;20048;-82
2022/08/04 01:29:48;;;;;;;3.70;1.70;;;20.70;98.80;;;;;;5058499;28;20370;-77
2022/08/04 01:32:44;;;;;;;4.90;2.38;;;20.70;98.80;;;;;;5049190;28;20232;-78
2022/08/04 01:35:27;;;;;;;6.93;2.08;;;20.70;98.90;;;;;;5032266;28;20065;-82
2022/08/04 01:38:04;;;;;;;3.63;1.48;;;20.70;98.90;;;;;;5037120;28;20031;-73
2022/08/04 01:40:33;;;;;;;7.50;1.80;;;20.70;98.90;;;;;;5036680;28;20021;-82
2022/08/04 01:43:02;;;;;;;4.70;1.55;;;20.80;98.90;;;;;;5035215;28;20531;-75
2022/08/04 01:45:30;;;;;;;6.95;1.65;;;20.70;98.90;;;;;;5035892;28;20098;-75
2022/08/04 01:47:59;;;;;;;3.13;1.50;;;20.80;98.80;;;;;;5036497;28;20159;-73
2022/08/04 01:50:27;;;;;;;5.97;2.05;;;20.80;98.80;;;;;;5039263;28;20062;-76
2022/08/04 01:52:55;;;;;;;3.88;1.40;;;20.80;98.80;;;;;;5042007;28;20021;-71
2022/08/04 01:55:23;;;;;;;3.65;1.10;;;20.80;98.50;;;;;;5036087;28;20025;-75
2022/08/04 01:57:53;;;;;;;3.72;1.35;;;20.80;98.50;;;;;;5037887;28;20048;-76
2022/08/04 02:00:27;;;;;;;2.35;1.20;;;20.80;98.60;;;;;;5020241;28;20057;-77
2022/08/04 02:02:56;;;;;;;2.28;1.50;;;20.80;98.50;;;;;;5036867;28;20033;-76
2022/08/04 02:05:25;;;;;;;6.65;1.38;;;20.90;98.30;;;;;;5037437;28;20123;-73
2022/08/04 02:08:14;;;;;;;4.05;1.40;;;20.90;98.20;;;;;;5038402;28;20497;-80
2022/08/04 02:11:14;;;;;;;3.78;1.30;;;20.90;98.10;;;;;;5037576;28;20025;-75
2022/08/04 02:13:56;;;;;;;4.65;1.27;;;20.90;98.10;;;;;;5037007;28;20055;-72
2022/08/04 02:16:47;;;;;;;1.80;1.08;;;21.00;98.20;;;;;;5053741;28;20440;-79
2022/08/04 02:19:30;;;;;;;2.10;0.85;;;20.90;98.30;;;;;;5035765;28;20164;-75
2022/08/04 02:22:17;;;;;;;2.67;1.02;;;21.00;98.30;;;;;;5037384;28;20017;-73
2022/08/04 02:24:53;;;;;;;2.90;1.20;;;20.90;98.20;;;;;;5037098;28;20055;-75
2022/08/04 02:27:28;;;;;;;3.88;1.27;;;20.90;98.30;;;;;;5038818;28;20506;-77
2022/08/04 02:30:02;;;;;;;4.38;1.10;;;20.90;98.40;;;;;;5036006;28;20027;-75
2022/08/04 02:32:38;;;;;;;4.18;1.33;;;20.90;98.50;;;;;;5036951;28;20029;-73
2022/08/04 02:35:13;;;;;;;2.25;1.10;;;20.80;98.40;;;;;;5035720;28;20021;-78
2022/08/04 02:37:48;;;;;;;3.05;1.10;;;20.80;98.50;;;;;;5037454;28;20104;-77
2022/08/04 02:40:21;;;;;;;2.97;1.20;;;20.80;98.60;;;;;;5035699;28;20033;-75
2022/08/04 02:42:49;;;;;;;14.40;2.78;;;20.80;98.70;;;;;;5037226;28;20056;-74
2022/08/04 02:45:22;;;;;;;5.90;1.95;;;20.80;98.90;;;;;;5034578;28;20025;-79
2022/08/04 02:47:52;;;;;;;3.10;1.05;;;20.70;98.80;;;;;;5036163;28;20025;-74
2022/08/04 02:50:21;;;;;;;7.50;1.55;;;20.70;98.90;;;;;;5036249;28;20025;-76
2022/08/04 02:52:51;;;;;;;7.40;1.55;;;20.80;99.00;;;;;;5046332;28;20024;-78
2022/08/04 02:55:19;;;;;;;10.90;2.35;;;20.70;99.10;;;;;;5040306;28;20021;-74
2022/08/04 02:57:49;;;;;;;2.13;0.93;;;20.70;99.20;;;;;;5040675;28;20053;-77
2022/08/04 03:00:18;;;;;;;5.13;1.00;;;20.70;99.10;;;;;;5040725;28;20127;-79
2022/08/04 03:03:16;;;;;;;1.90;1.20;;;20.70;99.20;;;;;;5038161;28;20025;-74
2022/08/04 03:06:10;;;;;;;2.22;0.95;;;20.70;99.20;;;;;;5019301;28;20033;-78
2022/08/04 03:08:46;;;;;;;2.95;1.20;;;20.80;99.30;;;;;;5020589;28;20470;-75
2022/08/04 03:11:49;;;;;;;4.30;1.20;;;20.80;99.30;;;;;;5020566;28;20017;-75
2022/08/04 03:14:33;;;;;;;4.03;1.15;;;20.80;99.30;;;;;;5030614;28;20021;-77
2022/08/04 03:17:31;;;;;;;4.15;1.20;;;20.80;99.40;;;;;;5038808;28;20608;-76
2022/08/04 03:20:13;;;;;;;3.83;1.17;;;20.80;99.40;;;;;;5039678;28;20033;-81
2022/08/04 03:22:59;;;;;;;5.57;1.35;;;20.80;99.40;;;;;;5040352;28;20104;-75
2022/08/04 03:26:08;;;;;;;5.72;1.55;;;20.80;99.50;;;;;;5022951;28;20108;-78
2022/08/04 03:28:57;;;;;;;5.05;1.80;;;20.70;99.60;;;;;;5040611;28;20036;-75
2022/08/04 03:32:02;;;;;;;5.55;1.77;;;20.80;99.80;;;;;;5038834;28;20057;-76
2022/08/04 03:34:58;;;;;;;6.30;2.55;;;20.70;99.80;;;;;;5039672;28;20470;-75
2022/08/04 03:37:44;;;;;;;9.50;3.17;;;20.70;99.80;;;;;;5000915;28;20045;-78
2022/08/04 03:40:48;;;;;;;3.03;1.50;;;20.60;99.90;;;;;;5033854;28;20056;-77
2022/08/04 03:43:33;;;;;;;5.25;1.80;;;20.60;99.90;;;;;;5057616;28;20417;-82
2022/08/04 03:46:38;;;;;;;7.25;2.00;;;20.60;99.90;;;;;;5039619;28;20021;-75
2022/08/04 03:49:38;;;;;;;4.95;1.55;;;20.60;99.90;;;;;;5026478;28;20384;-80
2022/08/04 03:55:42;;;;;;;25.55;4.20;;;20.60;99.90;;;;;;5037071;28;20039;-80
2022/08/04 03:58:30;;;;;;;11.73;2.80;;;20.60;99.90;;;;;;5019764;28;20533;-78
2022/08/04 04:01:18;;;;;;;3.92;1.65;;;20.60;99.90;;;;;;5032269;28;20104;-77
2022/08/04 04:04:10;;;;;;;4.22;1.60;;;20.60;99.90;;;;;;5032880;28;20071;-80
2022/08/04 04:06:55;;;;;;;4.75;1.80;;;20.60;99.90;;;;;;5039584;28;20044;-80
2022/08/04 04:09:53;;;;;;;4.00;1.45;;;20.60;99.90;;;;;;5038009;28;20029;-77
2022/08/04 04:12:41;;;;;;;9.93;2.22;;;20.60;99.90;;;;;;5039970;28;20613;-78
2022/08/04 04:15:23;;;;;;;5.47;1.92;;;20.60;99.90;;;;;;5037951;28;20056;-77
2022/08/04 04:18:51;;;;;;;7.38;2.17;;;20.60;99.90;;;;;;5038245;28;20100;-76
2022/08/04 04:21:42;;;;;;;5.43;1.90;;;20.60;99.50;;;;;;4985034;28;20064;-74
2022/08/04 04:24:46;;;;;;;4.80;2.25;;;20.70;99.30;;;;;;5039098;28;20032;-81
2022/08/04 04:27:17;;;;;;;3.92;1.15;;;20.70;98.50;;;;;;5038148;28;20104;-79
2022/08/04 04:30:07;;;;;;;4.05;1.67;;;20.80;98.30;;;;;;5052617;28;20032;-71
2022/08/04 04:33:18;;;;;;;4.88;1.98;;;20.90;98.10;;;;;;5058883;28;20029;-77
2022/08/04 04:36:03;;;;;;;2.22;1.33;;;20.90;97.90;;;;;;5035908;28;20060;-81
2022/08/04 04:38:53;;;;;;;3.40;1.45;;;21.00;97.70;;;;;;5038488;28;20029;-77
2022/08/04 04:41:23;;;;;;;3.72;1.40;;;21.00;97.50;;;;;;5039466;28;20385;-80
2022/08/04 04:44:23;;;;;;;3.65;1.42;;;21.00;97.50;;;;;;5038279;28;20341;-76
2022/08/04 04:47:24;;;;;;;5.65;1.65;;;21.00;97.50;;;;;;5038925;28;20032;-78
2022/08/04 04:50:00;;;;;;;4.05;1.65;;;21.00;97.60;;;;;;5038499;28;20151;-75
2022/08/04 04:52:30;;;;;;;2.78;1.23;;;20.90;97.60;;;;;;5040611;28;20021;-79
2022/08/04 04:55:21;;;;;;;2.60;1.60;;;20.90;97.40;;;;;;5037651;28;20028;-76
2022/08/04 04:57:51;;;;;;;3.35;1.35;;;20.90;97.30;;;;;;5037939;28;20127;-76
2022/08/04 05:00:20;;;;;;;3.03;1.70;;;20.90;96.50;;;;;;5037899;28;20182;-77
2022/08/04 05:03:32;;;;;;;3.17;1.17;;;20.90;95.80;;;;;;5037325;28;20052;-79
2022/08/04 05:06:20;;;;;;;1.98;1.17;;;21.00;95.60;;;;;;5035934;28;20037;-81
2022/08/04 05:08:51;;;;;;;2.72;1.17;;;21.10;95.40;;;;;;5037568;28;20025;-77
2022/08/04 05:11:42;;;;;;;5.25;1.67;;;21.10;95.30;;;;;;5036832;28;20029;-77
2022/08/04 05:14:36;;;;;;;5.25;2.00;;;21.00;95.40;;;;;;5037091;28;20036;-73
2022/08/04 05:17:32;;;;;;;2.58;1.30;;;21.00;95.50;;;;;;5036315;28;20116;-79
2022/08/04 05:20:10;;;;;;;4.47;1.35;;;21.00;95.50;;;;;;5036607;28;20033;-74
2022/08/04 05:22:51;;;;;;;4.28;1.35;;;21.00;95.40;;;;;;5043537;28;20025;-77
2022/08/04 05:25:25;;;;;;;3.08;1.23;;;21.00;95.30;;;;;;5036962;28;20383;-74
2022/08/04 05:28:05;;;;;;;6.38;1.40;;;21.00;95.90;;;;;;5038022;28;20025;-76
2022/08/04 05:30:49;;;;;;;4.10;1.20;;;20.90;95.90;;;;;;5032948;28;20032;-73
2022/08/04 05:33:40;;;;;;;3.17;1.05;;;20.90;96.00;;;;;;5026828;28;20029;-73
2022/08/04 05:36:16;;;;;;;3.47;1.50;;;20.80;96.00;;;;;;5035274;28;20057;-76
2022/08/04 05:38:45;;;;;;;2.17;1.27;;;20.90;96.20;;;;;;5034885;28;21707;-77
2022/08/04 05:41:13;;;;;;;3.72;1.45;;;20.90;96.20;;;;;;5040500;28;20044;-79
2022/08/04 05:43:44;;;;;;;1.75;1.30;;;20.90;96.40;;;;;;5039921;28;20025;-80
2022/08/04 05:46:13;;;;;;;6.57;1.65;;;20.80;96.90;;;;;;5035146;28;20021;-73
2022/08/04 05:48:42;;;;;;;4.05;1.17;;;20.80;97.70;;;;;;5019913;28;20036;-71
2022/08/04 05:51:10;;;;;;;3.55;1.50;;;20.70;98.30;;;;;;5035599;28;20060;-78
2022/08/04 05:53:41;;;;;;;4.32;1.50;;;20.60;98.20;;;;;;5037552;28;20848;-79
2022/08/04 05:56:13;;;;;;;4.35;1.75;;;20.60;98.50;;;;;;5033605;28;20352;-74
2022/08/04 05:58:42;;;;;;;3.30;1.25;;;20.40;98.90;;;;;;5036881;28;20047;-74
2022/08/04 06:01:11;;;;;;;2.75;1.55;;;20.40;99.40;;;;;;5034992;28;20506;-76
2022/08/04 06:03:40;;;;;;;4.63;1.70;;;20.30;99.80;;;;;;5036320;28;20078;-76
2022/08/04 06:06:09;;;;;;;4.53;1.60;;;20.20;99.90;;;;;;5035003;28;20020;-77
2022/08/04 06:08:36;;;;;;;3.97;1.65;;;20.10;99.90;;;;;;5037105;28;20040;-76
2022/08/04 06:11:07;;;;;;;4.75;1.65;;;20.00;99.90;;;;;;5037079;28;20021;-75
2022/08/04 06:13:44;;;;;;;4.43;1.90;;;20.00;99.90;;;;;;5035560;28;20044;-77
2022/08/04 06:16:14;;;;;;;6.60;2.88;;;19.90;99.90;;;;;;5036035;28;20036;-77
2022/08/04 06:18:44;;;;;;;3.80;2.03;;;19.90;99.90;;;;;;5036989;28;20540;-81
2022/08/04 06:21:13;;;;;;;3.95;1.58;;;19.90;99.90;;;;;;5036737;28;20036;-80
2022/08/04 06:23:43;;;;;;;2.85;1.77;;;19.90;99.90;;;;;;5015424;28;23566;-78
2022/08/04 06:26:18;;;;;;;4.10;1.95;;;20.00;99.90;;;;;;4975229;28;20419;-78
2022/08/04 06:28:50;;;;;;;2.80;1.80;;;20.00;99.90;;;;;;4979707;28;20617;-79
2022/08/04 06:34:09;;;;;;;3.75;1.88;;;20.00;99.90;;;;;;4980864;28;20411;-76
2022/08/04 06:36:39;;;;;;;4.63;1.92;;;20.00;99.90;;;;;;4978789;28;20491;-77
2022/08/04 06:39:08;;;;;;;4.28;1.92;;;20.00;99.90;;;;;;4981375;28;20485;-77
2022/08/04 06:41:36;;;;;;;3.65;1.70;;;20.00;99.90;;;;;;4982575;28;20462;-78
2022/08/04 06:44:06;;;;;;;3.00;1.80;;;20.10;99.90;;;;;;4982069;28;20018;-78
2022/08/04 06:46:40;;;;;;;6.38;2.35;;;20.10;99.90;;;;;;4978963;28;20026;-73
2022/08/04 06:49:08;;;;;;;4.72;1.73;;;20.10;99.90;;;;;;4980704;28;20031;-75
2022/08/04 06:51:38;;;;;;;4.50;2.25;;;20.10;99.90;;;;;;4979179;28;20054;-77
2022/08/04 06:54:05;;;;;;;4.88;1.85;;;20.10;99.90;;;;;;4980914;28;20026;-78
2022/08/04 06:56:35;;;;;;;3.00;1.77;;;20.10;99.90;;;;;;4979861;28;20136;-74
2022/08/04 06:59:03;;;;;;;5.97;1.88;;;20.10;99.90;;;;;;4979769;28;20034;-72
2022/08/04 07:01:32;;;;;;;3.55;2.17;;;20.10;99.90;;;;;;4979721;28;20105;-76
2022/08/04 07:03:59;;;;;;;4.38;2.25;;;20.10;99.90;;;;;;4979885;28;20026;-78
2022/08/04 07:06:27;;;;;;;3.47;1.73;;;20.10;99.90;;;;;;4982735;28;20033;-80
2022/08/04 07:08:59;;;;;;;7.40;2.20;;;20.10;99.90;;;;;;4982923;28;20085;-82
2022/08/04 07:11:27;;;;;;;7.78;2.17;;;20.00;99.90;;;;;;4984235;28;20026;-73
2022/08/04 07:13:56;;;;;;;3.67;2.47;;;20.00;99.90;;;;;;4980459;28;20034;-82
2022/08/04 07:16:23;;;;;;;4.20;2.17;;;20.00;99.90;;;;;;4981662;28;20026;-75
2022/08/04 07:18:51;;;;;;;5.18;2.90;;;19.90;99.90;;;;;;4988271;28;20040;-73
2022/08/04 07:21:22;;;;;;;3.65;2.08;;;19.80;99.90;;;;;;5001491;28;20622;-74
2022/08/04 07:23:50;;;;;;;4.35;2.35;;;19.80;99.90;;;;;;4979112;28;20518;-75
2022/08/04 07:26:18;;;;;;;5.70;2.70;;;19.70;99.90;;;;;;4980772;28;20391;-78
2022/08/04 07:28:46;;;;;;;4.22;2.60;;;19.60;99.90;;;;;;4979438;28;20023;-81
2022/08/04 07:31:17;;;;;;;5.75;2.97;;;19.40;99.90;;;;;;4980181;28;20026;-75
2022/08/04 07:33:46;;;;;;;5.47;2.50;;;19.30;99.90;;;;;;4979199;28;20022;-80
2022/08/04 07:36:14;;;;;;;6.25;2.42;;;19.20;99.90;;;;;;4980716;28;20011;-83
2022/08/04 07:42:03;;;;;;;7.63;2.83;;;19.00;99.90;;;;;;4979490;28;20037;-77
2022/08/04 07:50:23;;;;;;;4.90;2.53;;;18.80;99.90;;;;;;4979681;28;20034;-74
2022/08/04 07:52:51;;;;;;;6.07;2.50;;;18.70;99.90;;;;;;4980466;28;20029;-80
2022/08/04 07:55:18;;;;;;;3.78;2.65;;;18.70;99.90;;;;;;4988978;28;20470;-76
2022/08/04 07:57:46;;;;;;;3.67;2.35;;;18.70;99.90;;;;;;4983207;28;20065;-80
2022/08/04 08:00:14;;;;;;;5.85;2.50;;;18.80;99.90;;;;;;4983096;28;20034;-71
2022/08/04 08:02:53;;;;;;;3.20;2.72;;;18.70;99.90;;;;;;4981618;28;20022;-74
2022/08/04 08:05:21;;;;;;;3.50;2.10;;;18.80;99.90;;;;;;4983754;28;20041;-72
2022/08/04 08:07:50;;;;;;;4.28;2.17;;;18.80;99.90;;;;;;4980956;28;20049;-82
2022/08/04 08:10:21;;;;;;;5.57;2.65;;;18.70;99.90;;;;;;4981783;28;20502;-79
2022/08/04 08:12:49;;;;;;;4.47;2.13;;;18.70;99.90;;;;;;4980106;28;20034;-80
2022/08/04 08:15:18;;;;;;;8.20;3.35;;;18.60;99.90;;;;;;4980722;28;20037;-81
2022/08/04 08:17:45;;;;;;;7.43;3.13;;;18.50;99.90;;;;;;4979011;28;20205;-76
2022/08/04 08:20:13;;;;;;;9.68;3.10;;;18.40;99.90;;;;;;4981038;28;20508;-75
2022/08/04 08:22:42;;;;;;;6.72;2.90;;;18.30;99.90;;;;;;4980334;28;20113;-75
2022/08/04 08:25:11;;;;;;;5.60;3.20;;;18.20;99.90;;;;;;4995113;28;20492;-77
2022/08/04 08:27:38;;;;;;;8.48;3.50;;;18.10;99.90;;;;;;4980644;28;20023;-77
2022/08/04 08:30:07;;;;;;;5.53;3.50;;;18.10;99.90;;;;;;4980574;28;20026;-78
2022/08/04 08:32:35;;;;;;;7.00;3.35;;;18.00;99.90;;;;;;4981310;28;20427;-78
2022/08/04 08:35:02;;;;;;;6.63;3.50;;;18.00;99.90;;;;;;4979230;28;20123;-75
2022/08/04 08:37:53;;;;;;;8.50;4.45;;;17.90;99.90;;;;;;4979898;28;20030;-75
2022/08/04 08:40:32;;;;;;;7.43;3.25;;;17.90;99.90;;;;;;4994935;28;20045;-79
2022/08/04 08:43:23;;;;;;;5.82;3.35;;;17.80;99.90;;;;;;4980170;28;20064;-74
2022/08/04 08:46:25;;;;;;;5.20;3.63;;;17.80;99.90;;;;;;4978312;28;20076;-77
2022/08/04 08:49:18;;;;;;;5.65;2.95;;;17.70;99.90;;;;;;4980690;28;20045;-79
2022/08/04 08:51:59;;;;;;;5.97;3.08;;;17.70;99.90;;;;;;4980107;28;20030;-76
2022/08/04 08:54:44;;;;;;;5.32;3.00;;;17.60;99.90;;;;;;4979933;28;20134;-77
2022/08/04 08:57:27;;;;;;;4.70;3.22;;;17.60;99.90;;;;;;4977006;28;20039;-76
2022/08/04 09:00:06;;;;;;;4.95;2.92;;;17.60;99.90;;;;;;4979757;28;20034;-77
2022/08/04 09:03:04;;;;;;;2.95;2.03;;;17.60;99.90;;;;;;4981004;28;20488;-76
2022/08/04 09:05:46;;;;;;;4.97;3.13;;;17.60;99.90;;;;;;4978354;28;20034;-79
2022/08/04 09:09:04;;;;;;;4.07;3.20;;;17.60;99.90;;;;;;4978494;28;20037;-78
2022/08/04 09:11:56;;;;;;;6.65;2.50;;;17.50;99.90;;;;;;4973751;28;20038;-76
2022/08/04 09:14:39;;;;;;;7.38;3.00;;;17.50;99.90;;;;;;4971842;28;20026;-74
2022/08/04 09:17:08;;;;;;;;;;;17.50;99.90;;;;;;4978610;28;20026;-77
2022/08/04 09:20:02;;;;;;;5.03;2.28;;;17.50;99.90;;;;;;4979426;28;19913;-81
2022/08/04 09:22:43;;;;;;;5.05;2.22;;;17.40;99.90;;;;;;4978921;28;20041;-79
2022/08/04 09:25:30;;;;;;;3.50;2.13;;;17.40;99.90;;;;;;4978815;28;20054;-74
2022/08/04 09:28:06;;;;;;;5.22;2.10;;;17.40;99.90;;;;;;4978730;28;20070;-77
2022/08/04 09:31:09;;;;;;;3.10;1.60;;;17.40;99.90;;;;;;4979497;28;20026;-75
2022/08/04 09:33:42;;;;;;;3.33;1.57;;;17.50;99.90;;;;;;4997308;28;20038;-75
2022/08/04 09:36:43;;;;;;;2.67;1.60;;;17.60;99.90;;;;;;4977451;28;20041;-72
2022/08/04 09:39:19;;;;;;;3.47;2.00;;;17.60;99.90;;;;;;4966262;28;20058;-72
2022/08/04 09:41:52;;;;;;;2.03;1.35;;;17.60;99.90;;;;;;4976342;28;20038;-77
2022/08/04 09:44:42;;;;;;;2.17;1.40;;;17.60;99.90;;;;;;4976364;28;20026;-78
2022/08/04 09:47:31;;;;;;;2.22;1.33;;;17.60;99.90;;;;;;4976266;28;20034;-80
2022/08/04 09:50:18;;;;;;;2.35;1.40;;;17.50;99.90;;;;;;4971511;28;20026;-78
2022/08/04 09:53:01;;;;;;;2.88;1.38;;;17.40;99.90;;;;;;4977066;28;20076;-80
2022/08/04 09:55:47;;;;;;;2.00;1.23;;;17.30;99.90;;;;;;4976424;28;20045;-76
2022/08/04 09:58:21;;;;;;;2.30;1.40;;;17.30;99.90;;;;;;4958077;28;20046;-79
2022/08/04 10:01:03;;;;;;;3.30;1.30;;;17.30;99.90;;;;;;4976584;28;20066;-76
2022/08/04 10:04:01;;;;;;;1.95;1.13;;;17.40;99.90;;;;;;4979959;28;20054;-73
2022/08/04 10:06:49;;;;;;;2.10;1.00;;;17.50;99.90;;;;;;4979120;28;20495;-71
2022/08/04 10:09:43;;;;;;;1.25;0.80;;;17.60;99.90;;;;;;4977894;28;20380;-78
2022/08/04 10:12:57;;;;;;;1.63;1.15;;;17.70;99.90;;;;;;4977651;28;20037;-75
2022/08/04 10:15:32;;;;;;;1.80;1.13;;;17.70;99.90;;;;;;4979935;28;20116;-78
2022/08/04 10:18:23;;;;;;;1.85;1.00;;;17.70;99.90;;;;;;4977833;28;20118;-79
2022/08/04 10:21:30;;;;;;;1.85;0.95;;;17.80;99.90;;;;;;4959789;28;20507;-76
2022/08/04 10:24:19;;;;;;;3.38;1.08;;;17.80;99.90;;;;;;4978717;28;20583;-72
2022/08/04 10:26:56;;;;;;;3.22;1.42;;;17.80;99.90;;;;;;4976458;28;20531;-79
2022/08/04 10:29:35;;;;;;;1.13;0.80;;;17.80;99.90;;;;;;4977277;28;20034;-76
2022/08/04 10:32:20;;;;;;;1.98;1.15;;;17.70;99.90;;;;;;4978888;28;20030;-73
2022/08/04 10:35:19;;;;;;;2.55;1.25;;;17.70;99.90;;;;;;4978504;28;20034;-74
2022/08/04 10:38:07;;;;;;;1.85;1.02;;;17.70;99.90;;;;;;4978938;28;20100;-79
2022/08/04 10:40:47;;;;;;;1.10;0.90;;;17.70;99.90;;;;;;4979721;28;20034;-80
2022/08/04 10:43:32;;;;;;;2.72;1.10;;;17.70;99.90;;;;;;4980283;28;20023;-79
2022/08/04 10:46:18;;;;;;;2.88;1.10;;;17.70;99.90;;;;;;4978275;28;20030;-76
2022/08/04 10:49:08;;;;;;;2.95;0.85;;;17.70;99.90;;;;;;4977824;28;20142;-76
2022/08/04 10:51:51;;;;;;;1.33;0.88;;;17.70;99.90;;;;;;4977676;28;20034;-73
2022/08/04 10:54:42;;;;;;;1.42;0.90;;;17.60;99.90;;;;;;4977828;28;20029;-77
2022/08/04 10:57:25;;;;;;;1.58;0.88;;;17.60;99.90;;;;;;4977188;28;20145;-73
2022/08/04 11:00:02;;;;;;;;;;;17.60;99.90;;;;;;4978715;28;20706;-72
2022/08/04 11:02:48;;;;;;;1.50;1.05;;;17.60;99.90;;;;;;4976055;28;19917;-78
2022/08/04 11:05:15;;;;;;;1.20;0.98;;;17.50;99.90;;;;;;4976221;28;20314;-77
2022/08/04 11:07:47;;;;;;;1.67;1.00;;;17.50;99.90;;;;;;4976556;28;20023;-79
2022/08/04 11:10:19;;;;;;;2.30;0.97;;;17.50;99.90;;;;;;4977534;28;20034;-73
2022/08/04 11:12:52;;;;;;;1.52;0.70;;;17.50;99.90;;;;;;4958421;28;20034;-76
2022/08/04 11:15:38;;;;;;;3.10;1.25;;;17.50;99.90;;;;;;4967150;28;20018;-76
2022/08/04 11:18:32;;;;;;;1.83;0.98;;;17.40;99.90;;;;;;4980723;28;20572;-73
2022/08/04 11:21:12;;;;;;;0.90;0.80;;;17.50;99.90;;;;;;4981454;28;20045;-73
2022/08/04 11:24:04;;;;;;;1.80;0.95;;;17.50;99.90;;;;;;4980491;28;20609;-77
2022/08/04 11:26:45;;;;;;;0.70;0.60;;;17.50;99.90;;;;;;4979317;28;20034;-71
2022/08/04 11:29:51;;;;;;;1.95;0.77;;;17.50;99.90;;;;;;4981725;28;20041;-79
2022/08/04 11:32:24;;;;;;;2.58;0.70;;;17.60;99.90;;;;;;4985400;28;20050;-80
2022/08/04 11:34:57;;;;;;;2.35;1.00;;;17.60;99.90;;;;;;4980648;28;20097;-78
2022/08/04 11:38:01;;;;;;;1.88;0.95;;;17.60;99.90;;;;;;4982480;28;20071;-76
2022/08/04 11:40:40;;;;;;;1.20;0.73;;;17.70;99.90;;;;;;4987916;28;20037;-77
2022/08/04 11:43:24;;;;;;;1.73;0.90;;;17.70;99.90;;;;;;4982013;28;20026;-78
2022/08/04 11:45:59;;;;;;;0.90;0.60;;;17.70;99.90;;;;;;4979612;28;20521;-78
2022/08/04 11:48:37;;;;;;;0.90;0.70;;;17.70;99.90;;;;;;4980480;28;20027;-74
2022/08/04 11:51:08;;;;;;;1.70;1.00;;;17.70;99.90;;;;;;4979863;28;20483;-80
2022/08/04 11:53:38;;;;;;;1.45;0.63;;;17.70;99.90;;;;;;4978571;28;20125;-72
2022/08/04 11:56:08;;;;;;;1.40;0.63;;;17.60;99.90;;;;;;4980254;28;20019;-78
2022/08/04 11:58:36;;;;;;;1.85;1.00;;;17.70;99.90;;;;;;4979092;28;20042;-72
2022/08/04 12:01:15;;;;;;;1.25;0.70;;;17.70;99.90;;;;;;4981419;28;20479;-78
2022/08/04 12:04:19;;;;;;;1.30;0.73;;;17.60;99.90;;;;;;4979506;28;20018;-79
2022/08/04 12:07:18;;;;;;;1.85;0.70;;;17.50;99.90;;;;;;4979991;28;20026;-75
2022/08/04 12:10:13;;;;;;;1.38;0.80;;;17.50;99.90;;;;;;4979838;28;20124;-70
2022/08/04 12:12:58;;;;;;;2.17;0.70;;;17.50;99.90;;;;;;4979460;28;20019;-79
2022/08/04 12:15:57;;;;;;;1.27;0.88;;;17.50;99.90;;;;;;4981301;28;20038;-73
2022/08/04 12:18:43;;;;;;;2.20;1.27;;;17.50;99.90;;;;;;4983034;28;20053;-77
2022/08/04 12:21:44;;;;;;;4.78;1.30;;;17.50;99.90;;;;;;4980376;28;20169;-74
2022/08/04 12:24:56;;;;;;;1.45;0.88;;;17.40;99.90;;;;;;4997241;28;20034;-79
2022/08/04 12:27:59;;;;;;;1.17;0.77;;;17.30;99.90;;;;;;4972915;28;20026;-78
2022/08/04 12:30:34;;;;;;;1.25;0.80;;;17.30;99.90;;;;;;4980737;28;20034;-77
2022/08/04 12:33:19;;;;;;;3.42;0.80;;;17.30;99.90;;;;;;4994177;28;20453;-76
2022/08/04 12:36:42;;;;;;;1.83;1.02;;;17.30;99.90;;;;;;4980411;28;20076;-81
2022/08/04 12:39:29;;;;;;;2.13;0.70;;;17.30;99.90;;;;;;4963483;28;20050;-76
2022/08/04 12:42:14;;;;;;;1.08;0.70;;;17.30;99.90;;;;;;4980054;28;20047;-79
2022/08/04 12:44:45;;;;;;;1.58;0.77;;;17.20;99.90;;;;;;4980255;28;20727;-77
2022/08/04 12:47:14;;;;;;;1.67;0.80;;;17.20;99.90;;;;;;4980158;28;20018;-70
2022/08/04 12:50:03;;;;;;;1.23;0.70;;;17.30;99.90;;;;;;4980156;28;20022;-74
2022/08/04 12:52:46;;;;;;;1.52;0.80;;;17.30;99.90;;;;;;4978404;28;20022;-79
2022/08/04 12:55:16;;;;;;;1.55;0.90;;;17.30;99.90;;;;;;4979680;28;20424;-75
2022/08/04 12:57:44;;;;;;;1.77;0.80;;;17.20;99.90;;;;;;4978661;28;20798;-75
2022/08/04 13:00:24;;;;;;;1.23;0.80;;;17.20;99.90;;;;;;4979778;28;20042;-73
2022/08/04 13:02:54;;;;;;;1.10;0.80;;;17.20;99.90;;;;;;4979105;28;20483;-79
2022/08/04 13:05:23;;;;;;;1.63;0.70;;;17.20;99.90;;;;;;4979346;28;20030;-79
2022/08/04 13:07:53;;;;;;;1.20;0.85;;;17.20;99.90;;;;;;4979365;28;20018;-75
2022/08/04 13:10:23;;;;;;;1.67;0.88;;;17.20;99.90;;;;;;4979261;28;20054;-75
2022/08/04 13:12:57;;;;;;;0.98;0.70;;;17.20;99.90;;;;;;4978329;28;20106;-78
2022/08/04 13:15:27;;;;;;;1.00;0.70;;;17.20;99.90;;;;;;4978942;28;20025;-77
2022/08/04 13:18:13;;;;;;;0.80;0.68;;;17.20;99.90;;;;;;4979218;28;20076;-81
2022/08/04 13:20:42;;;;;;;0.98;0.75;;;17.10;99.90;;;;;;4959335;28;20047;-71
2022/08/04 13:23:13;;;;;;;1.67;0.70;;;17.20;99.90;;;;;;4960237;28;20047;-74
2022/08/04 13:25:48;;;;;;;0.80;0.80;;;17.20;99.90;;;;;;4972276;28;20030;-78
2022/08/04 13:28:25;;;;;;;1.33;0.73;;;17.20;99.90;;;;;;4978806;28;20018;-72
2022/08/04 13:30:59;;;;;;;1.00;0.57;;;17.30;99.90;;;;;;4978276;28;20023;-75
2022/08/04 13:33:38;;;;;;;1.20;0.73;;;17.20;99.90;;;;;;4979257;28;20106;-76
2022/08/04 13:36:08;;;;;;;0.82;0.60;;;17.20;99.90;;;;;;4977572;28;20350;-77
2022/08/04 13:38:45;;;;;;;1.02;0.70;;;17.30;99.90;;;;;;4977887;28;20061;-75
2022/08/04 13:41:13;;;;;;;1.33;0.50;;;17.30;99.90;;;;;;4979225;28;20033;-75
2022/08/04 13:43:47;;;;;;;0.73;0.63;;;17.30;99.90;;;;;;4977878;28;20027;-77
2022/08/04 13:46:33;;;;;;;0.82;0.60;;;17.30;99.90;;;;;;4978865;28;20019;-74
2022/08/04 13:49:07;;;;;;;0.55;0.45;;;17.40;99.90;;;;;;4978998;28;20035;-73
2022/08/04 13:51:36;;;;;;;0.40;0.38;;;17.30;99.90;;;;;;4978182;28;20029;-71
2022/08/04 13:54:04;;;;;;;0.55;0.55;;;17.40;99.90;;;;;;4979037;28;20057;-72
2022/08/04 13:56:47;;;;;;;2.00;0.63;;;17.40;99.90;;;;;;4977771;28;20042;-77
2022/08/04 13:59:17;;;;;;;1.10;0.60;;;17.40;99.90;;;;;;4979593;28;20491;-75
2022/08/04 14:02:02;;;;;;;1.17;0.50;;;17.50;99.90;;;;;;4978291;28;20747;-79
2022/08/04 14:04:34;;;;;;;1.00;0.60;;;17.50;99.90;;;;;;4978557;28;20483;-79
2022/08/04 14:07:09;;;;;;;1.60;0.65;;;17.50;99.90;;;;;;4977978;28;20018;-73
2022/08/04 14:09:39;;;;;;;0.45;0.40;;;17.60;99.90;;;;;;4978308;28;20049;-76